createdAt,value
2018-07-05T00:02:35.917Z,24.80
2018-07-05T00:05:16.057Z,24.80
2018-07-05T00:08:01.385Z,24.70
2018-07-05T00:10:42.666Z,24.80
2018-07-05T00:13:22.691Z,24.80
2018-07-05T00:16:02.501Z,24.80
2018-07-05T00:18:42.314Z,24.80
2018-07-05T00:21:23.892Z,24.90
2018-07-05T00:24:04.429Z,24.90
2018-07-05T00:26:44.928Z,24.80
2018-07-05T00:29:24.727Z,24.90
2018-07-05T00:32:04.964Z,24.90
2018-07-05T00:34:45.884Z,24.80
2018-07-05T00:37:26.468Z,24.80
2018-07-05T00:40:06.346Z,24.80
2018-07-05T00:42:47.743Z,24.70
2018-07-05T00:45:28.804Z,24.60
2018-07-05T00:48:09.364Z,24.60
2018-07-05T00:50:50.365Z,24.50
2018-07-05T00:53:34.521Z,24.50
2018-07-05T00:56:15.073Z,24.50
2018-07-05T00:58:55.335Z,24.50
2018-07-05T01:01:35.458Z,24.50
2018-07-05T01:04:15.333Z,24.30
2018-07-05T01:06:55.475Z,24.40
2018-07-05T01:09:38.948Z,24.50
2018-07-05T01:12:18.871Z,24.50
2018-07-05T01:14:58.593Z,24.50
2018-07-05T01:17:42.701Z,24.50
2018-07-05T01:20:22.887Z,24.50
2018-07-05T01:23:04.128Z,24.60
2018-07-05T01:25:43.939Z,24.50
2018-07-05T01:28:24.343Z,24.60
2018-07-05T01:31:04.912Z,24.60
2018-07-05T01:33:46.065Z,24.60
2018-07-05T01:36:26.471Z,24.70
2018-07-05T01:41:41.166Z,24.70
2018-07-05T01:44:21.152Z,24.70
2018-07-05T01:47:01.072Z,24.70
2018-07-05T01:49:49.243Z,24.70
2018-07-05T01:52:29.217Z,24.70
2018-07-05T01:55:09.784Z,24.80
2018-07-05T01:57:49.582Z,24.90
2018-07-05T02:00:29.325Z,24.90
2018-07-05T02:03:09.715Z,25.00
2018-07-05T02:05:54.424Z,24.90
2018-07-05T02:08:34.197Z,25.00
2018-07-05T02:11:14.104Z,25.00
2018-07-05T02:13:55.571Z,24.90
2018-07-05T02:16:36.033Z,24.80
2018-07-05T02:19:20.825Z,24.80
2018-07-05T02:22:01.202Z,24.80
2018-07-05T02:24:40.883Z,24.80
2018-07-05T02:27:20.752Z,24.80
2018-07-05T02:30:01.574Z,24.80
2018-07-05T02:35:15.990Z,24.70
2018-07-05T02:38:01.144Z,24.70
2018-07-05T02:40:41.124Z,24.70
2018-07-05T02:43:21.056Z,24.60
2018-07-05T02:46:01.473Z,24.60
2018-07-05T02:48:42.195Z,24.60
2018-07-05T02:51:22.052Z,24.50
2018-07-05T02:54:01.772Z,24.60
2018-07-05T02:56:41.860Z,24.50
2018-07-05T02:59:21.831Z,24.60
2018-07-05T03:02:01.659Z,24.50
2018-07-05T03:04:41.871Z,24.40
2018-07-05T03:07:21.990Z,24.50
2018-07-05T03:10:01.959Z,24.50
2018-07-05T03:12:42.096Z,24.40
2018-07-05T03:15:21.928Z,24.50
2018-07-05T03:18:10.755Z,24.50
2018-07-05T03:20:54.783Z,24.40
2018-07-05T03:23:35.089Z,24.50
2018-07-05T03:26:15.453Z,24.40
2018-07-05T03:28:59.199Z,24.40
2018-07-05T03:31:39.352Z,24.40
2018-07-05T03:34:19.284Z,24.30
2018-07-05T03:37:02.840Z,24.30
2018-07-05T03:39:43.316Z,24.30
2018-07-05T03:42:23.358Z,24.30
2018-07-05T03:47:38.668Z,24.30
2018-07-05T03:50:18.789Z,24.30
2018-07-05T03:52:58.714Z,24.30
2018-07-05T03:55:39.607Z,24.30
2018-07-05T03:58:24.295Z,24.40
2018-07-05T04:01:04.288Z,24.40
2018-07-05T04:03:45.129Z,24.50
2018-07-05T04:06:25.467Z,24.50
2018-07-05T04:09:10.101Z,24.50
2018-07-05T04:11:49.739Z,24.60
2018-07-05T04:14:29.692Z,24.60
2018-07-05T04:17:09.433Z,24.70
2018-07-05T04:19:52.111Z,24.80
2018-07-05T04:27:42.466Z,24.90
2018-07-05T04:30:22.905Z,24.90
2018-07-05T04:33:02.850Z,25.00
2018-07-05T04:35:47.873Z,25.00
2018-07-05T04:38:28.493Z,25.00
2018-07-05T04:43:43.946Z,25.10
2018-07-05T04:46:24.220Z,25.10
2018-07-05T04:49:05.385Z,25.10
2018-07-05T04:51:50.252Z,25.10
2018-07-05T04:54:30.315Z,25.10
2018-07-05T04:57:10.913Z,25.10
2018-07-05T04:59:50.856Z,25.10
2018-07-05T05:02:31.267Z,25.20
2018-07-05T05:05:11.083Z,25.20
2018-07-05T05:07:53.827Z,25.20
2018-07-05T05:10:33.590Z,25.20
2018-07-05T05:13:13.401Z,25.30
2018-07-05T05:15:53.251Z,25.30
2018-07-05T05:18:34.020Z,25.40
2018-07-05T05:21:14.049Z,25.40
2018-07-05T05:23:54.718Z,25.50
2018-07-05T05:26:34.763Z,25.60
2018-07-05T05:29:15.356Z,25.60
2018-07-05T05:31:55.947Z,25.60
2018-07-05T05:34:36.936Z,25.70
2018-07-05T05:37:17.251Z,25.70
2018-07-05T05:39:56.998Z,25.90
2018-07-05T05:42:37.676Z,25.90
2018-07-05T05:45:19.368Z,26.00
2018-07-05T05:48:03.782Z,26.00
2018-07-05T05:50:45.478Z,26.10
2018-07-05T05:53:25.929Z,26.10
2018-07-05T05:56:06.171Z,26.10
2018-07-05T05:58:46.685Z,26.20
2018-07-05T06:01:26.453Z,26.30
2018-07-05T06:04:06.839Z,26.30
2018-07-05T06:06:46.610Z,26.40
2018-07-05T06:09:26.670Z,26.50
2018-07-05T06:12:11.249Z,26.60
2018-07-05T06:17:26.582Z,26.70
2018-07-05T06:20:06.443Z,26.70
2018-07-05T06:22:46.142Z,26.60
2018-07-05T06:25:26.628Z,26.70
2018-07-05T06:28:07.413Z,26.80
2018-07-05T06:30:47.534Z,26.80
2018-07-05T06:33:28.319Z,26.90
2018-07-05T06:36:08.365Z,26.90
2018-07-05T06:38:48.245Z,27.00
2018-07-05T06:41:28.415Z,27.10
2018-07-05T06:44:09.127Z,27.10
2018-07-05T06:49:22.759Z,27.00
2018-07-05T06:52:03.357Z,27.10
2018-07-05T06:54:43.919Z,27.10
2018-07-05T06:57:25.509Z,27.20
2018-07-05T08:22:02.499Z,27.30
2018-07-05T08:24:30.194Z,27.30
2018-07-05T08:26:58.597Z,27.30
2018-07-05T08:29:26.858Z,27.50
2018-07-05T08:34:22.883Z,27.60
2018-07-05T08:36:50.856Z,27.80
2018-07-05T08:39:18.994Z,27.80
2018-07-05T08:41:47.522Z,27.90
2018-07-05T08:44:15.463Z,28.00
2018-07-05T08:46:43.419Z,28.00
2018-07-05T08:49:12.219Z,28.10
2018-07-05T08:51:40.394Z,28.20
2018-07-05T08:54:11.338Z,28.30
2018-07-05T08:56:38.775Z,28.30
2018-07-05T08:59:07.478Z,28.40
2018-07-05T09:01:36.098Z,28.40
2018-07-05T09:04:03.605Z,28.40
2018-07-05T09:06:31.414Z,28.40
2018-07-05T09:08:59.877Z,28.50
2018-07-05T09:11:27.502Z,28.50
2018-07-05T09:13:56.296Z,28.60
2018-07-05T09:16:23.747Z,28.70
2018-07-05T09:18:51.716Z,28.80
2018-07-05T09:21:20.205Z,28.90
2018-07-05T09:23:48.287Z,29.00
2018-07-05T09:26:15.941Z,29.10
2018-07-05T09:28:43.833Z,29.20
2018-07-05T09:31:12.442Z,29.20
2018-07-05T09:33:40.601Z,29.20
2018-07-05T09:36:09.710Z,29.20
2018-07-05T09:38:37.987Z,29.30
2018-07-05T09:41:05.944Z,29.30
2018-07-05T09:43:38.459Z,29.40
2018-07-05T09:48:34.033Z,29.50
2018-07-05T09:51:01.477Z,29.60
2018-07-05T09:53:30.026Z,29.70
2018-07-05T09:55:57.904Z,29.80
2018-07-05T09:58:31.799Z,29.80
2018-07-05T10:01:00.020Z,29.80
2018-07-05T10:03:34.749Z,30.00
2018-07-05T10:06:04.283Z,30.00
2018-07-05T10:08:32.208Z,30.10
2018-07-05T10:10:59.752Z,30.20
2018-07-05T10:13:31.577Z,30.20
2018-07-05T10:16:03.382Z,30.30
2018-07-05T10:18:30.837Z,30.30
2018-07-05T10:20:59.271Z,30.40
2018-07-05T10:23:27.928Z,30.40
2018-07-05T10:25:55.720Z,30.50
2018-07-05T10:28:25.379Z,30.50
2018-07-05T10:31:05.496Z,30.60
2018-07-05T10:33:51.608Z,30.70
2018-07-05T10:36:19.059Z,30.80
2018-07-05T10:38:50.705Z,30.90
2018-07-05T10:41:34.988Z,31.00
2018-07-05T10:44:20.209Z,31.00
2018-07-05T10:47:00.264Z,31.10
2018-07-05T10:49:42.120Z,31.10
2018-07-05T10:52:22.572Z,31.20
2018-07-05T10:57:37.198Z,31.30
2018-07-05T11:00:17.092Z,31.30
2018-07-05T11:05:31.730Z,31.40
2018-07-05T11:08:11.453Z,31.40
2018-07-05T11:10:51.932Z,31.40
2018-07-05T11:13:31.801Z,31.30
2018-07-05T11:16:12.036Z,31.30
2018-07-05T11:18:51.686Z,31.30
2018-07-05T11:21:31.986Z,31.40
2018-07-05T11:26:50.453Z,31.60
2018-07-05T11:29:31.797Z,31.80
2018-07-05T11:32:12.898Z,31.90
2018-07-05T11:34:54.124Z,32.00
2018-07-05T11:37:34.602Z,32.10
2018-07-05T11:40:15.500Z,32.10
2018-07-05T11:42:56.050Z,32.10
2018-07-05T11:45:39.582Z,32.20
2018-07-05T11:48:19.333Z,32.30
2018-07-05T11:51:00.415Z,32.30
2018-07-05T11:53:40.364Z,32.30
2018-07-05T11:56:20.924Z,32.30
2018-07-05T11:59:01.335Z,32.40
2018-07-05T12:01:42.580Z,32.50
2018-07-05T12:04:27.317Z,32.40
2018-07-05T12:07:08.567Z,32.60
2018-07-05T12:09:55.139Z,32.70
2018-07-05T12:12:35.261Z,32.90
2018-07-05T12:15:16.015Z,33.10
2018-07-05T12:17:55.703Z,33.20
2018-07-05T12:20:39.459Z,33.30
2018-07-05T12:23:20.085Z,33.40
2018-07-05T12:25:59.983Z,33.60
2018-07-05T12:28:39.630Z,33.70
2018-07-05T12:31:20.521Z,33.80
2018-07-05T12:34:00.377Z,33.90
2018-07-05T12:36:40.346Z,34.00
2018-07-05T12:39:20.166Z,34.00
2018-07-05T12:41:59.835Z,34.00
2018-07-05T12:44:40.696Z,33.90
2018-07-05T12:47:20.810Z,34.00
2018-07-05T12:50:01.186Z,34.00
2018-07-05T12:52:41.254Z,34.10
2018-07-05T12:55:21.528Z,34.10
2018-07-05T12:58:09.010Z,34.20
2018-07-05T13:00:53.737Z,34.30
2018-07-05T13:03:33.531Z,34.40
2018-07-05T13:06:15.214Z,34.50
2018-07-05T13:08:59.388Z,34.50
2018-07-05T13:11:44.650Z,34.50
2018-07-05T13:14:24.585Z,34.50
2018-07-05T13:17:04.962Z,34.60
2018-07-05T13:19:45.024Z,34.60
2018-07-05T13:22:25.357Z,34.60
2018-07-05T13:25:06.179Z,34.60
2018-07-05T13:27:46.811Z,34.50
2018-07-05T13:30:27.908Z,34.40
2018-07-05T13:33:08.484Z,34.20
2018-07-05T13:35:54.240Z,34.10
2018-07-05T13:38:34.617Z,34.00
2018-07-05T13:41:14.694Z,33.90
2018-07-05T13:43:54.857Z,33.80
2018-07-05T13:46:35.497Z,33.70
2018-07-05T13:49:15.943Z,33.50
2018-07-05T13:51:55.606Z,33.40
2018-07-05T13:54:36.712Z,33.30
2018-07-05T13:57:17.731Z,33.10
2018-07-05T13:59:57.504Z,33.10
2018-07-05T14:02:37.246Z,33.00
2018-07-05T14:05:16.976Z,32.90
2018-07-05T14:07:56.891Z,32.50
2018-07-05T14:10:36.796Z,32.50
2018-07-05T14:13:17.103Z,32.40
2018-07-05T14:15:56.784Z,32.50
2018-07-05T14:18:36.517Z,32.30
2018-07-05T14:21:20.075Z,32.20
2018-07-05T14:24:01.052Z,32.10
2018-07-05T14:26:40.962Z,32.00
2018-07-05T14:29:22.418Z,31.90
2018-07-05T14:32:01.974Z,32.20
2018-07-05T14:34:46.447Z,32.50
2018-07-05T14:37:26.195Z,32.80
2018-07-05T14:40:05.941Z,33.00
2018-07-05T14:42:45.763Z,33.10
2018-07-05T14:45:26.906Z,33.10
2018-07-05T14:48:07.733Z,33.00
2018-07-05T14:50:50.354Z,32.90
2018-07-05T14:53:30.497Z,32.90
2018-07-05T14:56:10.536Z,32.90
2018-07-05T14:58:54.925Z,32.80
2018-07-05T15:01:34.730Z,33.10
2018-07-05T15:04:15.230Z,33.40
2018-07-05T15:06:56.437Z,33.60
2018-07-05T15:09:36.180Z,34.00
2018-07-05T15:14:50.555Z,34.50
2018-07-05T15:17:30.200Z,34.50
2018-07-05T15:20:10.198Z,34.30
2018-07-05T15:22:50.066Z,34.20
2018-07-05T15:25:30.729Z,34.10
2018-07-05T15:28:11.030Z,34.00
2018-07-05T15:30:51.104Z,34.00
2018-07-05T15:33:31.031Z,34.00
2018-07-05T15:36:15.744Z,33.90
2018-07-05T15:38:56.016Z,33.90
2018-07-05T15:41:35.971Z,33.80
2018-07-05T15:44:15.737Z,33.70
2018-07-05T15:46:55.376Z,33.70
2018-07-05T15:49:35.809Z,33.70
2018-07-05T15:52:16.675Z,33.70
2018-07-05T15:54:56.752Z,33.70
2018-07-05T15:57:36.708Z,33.80
2018-07-05T16:00:17.114Z,33.80
2018-07-05T16:02:56.763Z,33.90
2018-07-05T16:05:37.646Z,33.80
2018-07-05T16:08:18.636Z,33.80
2018-07-05T16:10:59.077Z,34.00
2018-07-05T16:13:39.972Z,33.90
2018-07-05T16:16:19.837Z,33.70
2018-07-05T16:18:59.577Z,33.50
2018-07-05T16:21:39.255Z,33.40
2018-07-05T16:24:20.072Z,33.30
2018-07-05T16:26:59.871Z,33.30
2018-07-05T16:29:39.581Z,33.20
2018-07-05T16:32:19.374Z,33.10
2018-07-05T16:34:59.369Z,33.10
2018-07-05T16:37:39.417Z,33.10
2018-07-05T16:40:25.018Z,33.00
2018-07-05T16:43:09.223Z,32.90
2018-07-05T16:45:53.018Z,32.70
2018-07-05T16:48:32.894Z,32.60
2018-07-05T16:51:14.471Z,32.50
2018-07-05T16:53:55.139Z,32.40
2018-07-05T16:59:13.309Z,32.30
2018-07-05T17:01:53.112Z,32.20
2018-07-05T17:04:32.812Z,32.20
2018-07-05T17:07:14.004Z,32.20
2018-07-05T17:09:53.886Z,32.10
2018-07-05T17:12:33.582Z,32.00
2018-07-05T17:15:14.914Z,32.10
2018-07-05T17:17:54.703Z,32.20
2018-07-05T17:20:35.323Z,32.10
2018-07-05T17:23:15.696Z,32.10
2018-07-05T17:25:55.413Z,32.00
2018-07-05T17:28:37.105Z,32.00
2018-07-05T17:31:17.037Z,31.90
2018-07-05T17:33:57.072Z,31.90
2018-07-05T17:36:36.962Z,31.90
2018-07-05T17:39:21.672Z,31.80
2018-07-05T17:42:01.666Z,31.70
2018-07-05T17:44:42.330Z,31.60
2018-07-05T17:47:21.973Z,31.50
2018-07-05T17:50:01.838Z,31.40
2018-07-05T17:52:41.804Z,31.30
2018-07-05T17:55:21.529Z,31.30
2018-07-05T17:58:01.400Z,31.20
2018-07-05T18:00:46.563Z,31.10
2018-07-05T18:03:26.982Z,31.10
2018-07-05T18:08:41.122Z,30.80
2018-07-05T18:11:21.985Z,30.60
2018-07-05T18:14:05.770Z,30.50
2018-07-05T18:16:46.390Z,30.40
2018-07-05T18:19:26.075Z,30.20
2018-07-05T18:22:05.933Z,30.10
2018-07-05T18:24:45.873Z,30.00
2018-07-05T18:27:26.354Z,29.90
2018-07-05T18:30:06.431Z,29.70
2018-07-05T18:32:50.004Z,29.60
2018-07-05T18:35:30.430Z,29.50
2018-07-05T18:38:11.078Z,29.40
2018-07-05T18:40:51.225Z,29.30
2018-07-05T18:43:30.996Z,29.20
2018-07-05T18:46:10.681Z,29.10
2018-07-05T18:48:51.366Z,29.00
2018-07-05T18:51:32.606Z,28.90
2018-07-05T18:54:13.266Z,28.80
2018-07-05T18:56:53.874Z,28.80
2018-07-05T18:59:33.578Z,28.70
2018-07-05T19:02:13.593Z,28.50
2018-07-05T19:04:54.380Z,28.40
2018-07-05T19:07:34.154Z,28.40
2018-07-05T19:10:14.904Z,28.40
2018-07-05T19:13:00.055Z,28.30
2018-07-05T19:15:40.984Z,28.20
2018-07-05T19:18:20.843Z,28.30
2018-07-05T19:21:00.734Z,28.20
2018-07-05T19:23:40.714Z,28.20
2018-07-05T19:26:21.045Z,28.10
2018-07-05T19:29:00.982Z,28.10
2018-07-05T19:31:41.409Z,28.10
2018-07-05T19:34:26.422Z,28.00
2018-07-05T19:37:09.868Z,28.00
2018-07-05T19:39:49.722Z,28.00
2018-07-05T19:42:29.634Z,28.00
2018-07-05T19:45:10.830Z,28.00
2018-07-05T19:47:51.295Z,27.90
2018-07-05T19:50:31.038Z,27.90
2018-07-05T19:53:12.300Z,27.70
2018-07-05T19:55:52.661Z,27.70
2018-07-05T19:58:33.112Z,27.50
2018-07-05T20:01:13.052Z,27.50
2018-07-05T20:03:56.560Z,27.40
2018-07-05T20:06:40.812Z,27.30
2018-07-05T20:09:20.729Z,27.10
2018-07-05T20:12:09.076Z,26.70
2018-07-05T20:14:49.720Z,26.50
2018-07-05T20:17:29.469Z,26.50
2018-07-05T20:20:10.309Z,26.50
2018-07-05T20:22:50.765Z,26.30
2018-07-05T20:25:35.625Z,26.30
2018-07-05T20:28:16.450Z,26.20
2018-07-05T20:30:56.338Z,26.20
2018-07-05T20:33:37.517Z,26.30
2018-07-05T20:36:17.418Z,26.30
2018-07-05T20:39:01.934Z,26.20
2018-07-05T20:41:41.565Z,26.20
2018-07-05T20:44:21.936Z,26.30
2018-07-05T20:47:02.065Z,26.30
2018-07-05T20:49:42.342Z,26.30
2018-07-05T20:52:22.173Z,26.30
2018-07-05T20:55:02.142Z,26.40
2018-07-05T20:57:42.075Z,26.30
2018-07-05T21:00:22.759Z,26.30
2018-07-05T21:03:02.733Z,26.30
2018-07-05T21:05:42.436Z,26.40
2018-07-05T21:08:22.416Z,26.40
2018-07-05T21:11:03.206Z,26.40
2018-07-05T21:13:43.035Z,26.40
2018-07-05T21:16:23.487Z,26.40
2018-07-05T21:19:04.577Z,26.40
2018-07-05T21:21:45.160Z,26.30
2018-07-05T21:24:25.087Z,26.30
2018-07-05T21:27:04.982Z,26.20
2018-07-05T21:29:44.966Z,26.10
2018-07-05T21:32:25.239Z,26.00
2018-07-05T21:35:05.542Z,25.80
2018-07-05T21:37:45.350Z,25.70
2018-07-05T21:40:25.170Z,25.60
2018-07-05T21:43:04.772Z,25.40
2018-07-05T21:45:44.471Z,25.20
2018-07-05T21:48:25.420Z,25.20
2018-07-05T21:51:05.556Z,25.00
2018-07-05T21:53:45.303Z,24.80
2018-07-05T21:59:00.835Z,24.40
2018-07-05T22:01:40.515Z,24.40
2018-07-05T22:04:21.276Z,24.40
2018-07-05T22:07:01.460Z,24.30
2018-07-05T22:09:42.517Z,24.10
2018-07-05T22:12:26.509Z,24.10
2018-07-05T22:15:06.431Z,24.00
2018-07-05T22:17:51.683Z,23.90
2018-07-05T22:20:37.127Z,24.00
2018-07-05T22:23:22.164Z,24.10
2018-07-05T22:26:07.253Z,23.90
2018-07-05T22:28:52.337Z,23.90
2018-07-05T22:31:33.488Z,23.50
2018-07-05T22:34:14.542Z,23.40
2018-07-05T22:36:55.648Z,23.10
2018-07-05T22:39:35.859Z,23.00
2018-07-05T22:42:16.699Z,22.70
2018-07-05T22:44:57.407Z,22.50
2018-07-05T22:47:37.297Z,22.30
2018-07-05T22:50:17.999Z,22.10
2018-07-05T22:52:59.918Z,22.00
2018-07-05T22:55:40.703Z,21.70
2018-07-05T22:58:21.297Z,21.60
2018-07-05T23:03:36.073Z,21.50
2018-07-05T23:06:21.787Z,21.40
2018-07-05T23:09:01.669Z,21.40
2018-07-05T23:11:41.613Z,21.40
2018-07-05T23:14:23.279Z,21.40
2018-07-05T23:17:03.170Z,21.40
2018-07-05T23:19:44.826Z,21.40
2018-07-05T23:22:24.577Z,21.40
2018-07-05T23:25:10.061Z,21.30
2018-07-05T23:27:51.419Z,21.30
2018-07-05T23:30:35.641Z,21.20
2018-07-05T23:33:15.923Z,21.10
2018-07-05T23:38:42.223Z,20.90
2018-07-05T23:41:23.455Z,20.90
2018-07-05T23:44:09.966Z,21.00
2018-07-05T23:46:51.058Z,20.90
2018-07-05T23:49:31.129Z,20.90
2018-07-05T23:52:12.464Z,20.80
2018-07-05T23:54:53.577Z,20.90
2018-07-05T23:57:33.441Z,20.90
